Latest Weather Observations for Katanning RS

IDW60801

Issued at 10:35 pm WST Wednesday 1 October 2014 (issued every 30 minutes, with the page automatically refreshed every 10 minutes)

About weather observations | Map of weather stations | Latest weather observations for WA | Other Formats
Station Details ID: 010916 Name: KATANNING Lat: -33.69 Lon: 117.61 Height: 320.0 m
Data from the previous 72 hours. | See also: Recent months at Katanning RS
Date/Time
WST
Temp
°C
App
Temp
°C
Dew
Point
Rel
Hum
%
Delta-T
°C
Wind Press
QNH
hPa
Press
MSL
hPa
Rain
since 9 am
mm
Dir
 
Spd
km/h
Gust
km/h
Spd
kts
Gust
kts
01/10:30pm 16.2 14.9 11.4 73 2.6 SSE 9 13 5 7 1018.5 1018.2 0.0
01/10:00pm 16.8 14.8 11.5 71 2.9 ESE 13 17 7 9 1018.5 1018.2 0.0
01/09:30pm 17.3 15.7 11.6 69 3.2 ESE 11 15 6 8 1018.6 1018.3 0.0
01/09:00pm 18.1 14.7 11.4 65 3.7 E 20 30 11 16 1018.3 1018.0 0.0
01/08:30pm 18.7 15.3 11.3 62 4.1 E 20 28 11 15 1018.7 1018.4 0.0
01/08:00pm 19.7 17.6 9.6 52 5.4 E 11 17 6 9 1020.1 1019.7 0.0
01/07:30pm 20.6 19.5 8.6 46 6.4 ESE 4 6 2 3 1019.6 1019.2 0.0
01/07:00pm 20.8 18.9 9.1 47 6.3 E 9 13 5 7 1018.8 1018.5 0.0
01/06:30pm 21.2 19.5 8.5 44 6.8 ESE 7 11 4 6 1018.5 1018.2 0.0
01/06:00pm 21.1 19.2 9.0 46 6.5 E 9 11 5 6 1018.5 1018.2 0.0
01/05:30pm 22.2 19.8 8.7 42 7.3 E 11 13 6 7 1018.6 1018.3 0.0
01/05:00pm 23.3 21.0 9.0 40 7.8 ENE 11 15 6 8 1018.5 1018.2 0.0
01/04:30pm 24.4 21.6 8.4 36 8.7 ENE 13 19 7 10 1018.5 1018.2 0.0
01/04:00pm 24.0 20.2 7.6 35 8.7 NNE 17 24 9 13 1018.5 1018.2 0.0
01/03:30pm 24.9 21.5 9.2 37 8.7 NE 17 20 9 11 1018.6 1018.3 0.0
01/03:00pm 24.9 21.3 8.4 35 9.0 NE 17 26 9 14 1018.7 1018.4 0.0
01/02:30pm 24.7 20.9 9.0 37 8.6 NE 19 28 10 15 1019.1 1018.7 0.0
01/02:00pm 24.6 20.9 9.3 38 8.4 NE 19 26 10 14 1019.4 1019.0 0.0
01/01:30pm 24.3 21.2 10.2 41 7.9 NE 17 24 9 13 1019.9 1019.5 0.0
01/01:00pm 23.6 21.5 11.0 45 7.1 NE 13 19 7 10 1020.5 1020.1 0.0
01/12:30pm 23.0 21.2 12.0 50 6.3 ENE 13 24 7 13 1021.0 1020.7 0.0
01/12:00pm 21.9 19.6 10.4 48 6.4 ENE 13 19 7 10 1021.5 1021.2 0.0
01/11:30am 21.1 18.9 10.9 52 5.7 NE 13 20 7 11 1022.3 1021.9 0.0
01/11:00am 20.4 19.0 10.8 54 5.3 NE 9 19 5 10 1022.6 1022.2 0.0
01/10:30am 19.1 16.8 10.6 58 4.7 NE 13 19 7 10 1022.9 1022.5 0.0
01/10:00am 18.2 16.3 10.6 61 4.1 ENE 11 17 6 9 1023.1 1022.7 0.0
01/09:30am 17.1 14.0 10.2 64 3.7 NE 17 24 9 13 1023.4 1023.1 0.0
01/09:00am 15.3 12.5 10.1 71 2.8 E 15 20 8 11 1023.6 1023.3 0.2
01/08:30am 13.9 10.6 9.7 76 2.2 E 17 22 9 12 1023.9 1023.6 0.2
01/08:00am 12.7 9.7 9.3 80 1.7 E 15 22 8 12 1024.1 1023.8 0.2
01/07:30am 11.4 8.2 8.6 83 1.4 E 15 22 8 12 1023.7 1023.7 0.2
01/07:00am 10.5 7.2 8.1 85 1.2 E 15 20 8 11 1023.8 1023.8 0.2
01/06:30am 9.6 7.0 7.7 88 0.9 ESE 11 15 6 8 1023.9 1023.9 0.2
01/06:00am 8.9 6.5 7.2 89 0.8 ESE 9 13 5 7 1023.6 1023.6 0.2
01/05:30am 8.6 5.8 6.9 89 0.8 ESE 11 15 6 8 1023.4 1023.4 0.0
01/05:00am 8.7 6.3 7.0 89 0.8 ESE 9 13 5 7 1023.5 1023.5 0.0
01/04:30am 8.9 6.6 7.4 90 0.7 ESE 9 15 5 8 1023.5 1023.5 0.0
01/04:00am 9.0 6.7 7.5 90 0.7 ESE 9 13 5 7 1023.7 1023.7 0.0
01/03:30am 9.0 7.0 7.3 89 0.8 ESE 7 11 4 6 1023.7 1023.7 0.0
01/03:00am 9.2 7.3 7.5 89 0.8 E 7 13 4 7 1023.8 1023.8 0.0
01/02:30am 9.5 6.9 7.8 89 0.8 E 11 13 6 7 1023.9 1023.9 0.0
01/02:00am 9.6 6.6 7.9 89 0.8 E 13 19 7 10 1023.9 1023.9 0.0
01/01:30am 9.5 6.9 7.6 88 0.9 E 11 15 6 8 1024.1 1024.1 0.0
01/01:00am 9.4 7.1 7.3 87 1.0 E 9 13 5 7 1024.3 1024.3 0.0
01/12:30am 9.5 6.8 7.4 87 1.0 E 11 15 6 8 1024.4 1024.5 0.0
01/12:00am 9.3 6.5 7.1 86 1.0 E 11 17 6 9 1024.4 1024.5 0.0
 
Date/Time
WST
Temp
°C
App
Temp
°C
Dew
Point
Rel
Hum
%
Delta-T
°C
Wind Press
QNH
hPa
Press
MSL
hPa
Rain
since 9 am
mm
Dir
 
Spd
km/h
Gust
km/h
Spd
kts
Gust
kts
30/11:30pm 9.0 6.8 6.3 83 1.3 E 7 11 4 6 1024.6 1024.7 0.0
30/11:00pm 9.5 7.4 6.6 82 1.4 E 7 11 4 6 1024.7 1024.8 0.0
30/10:30pm 10.0 7.2 6.9 81 1.5 ESE 11 15 6 8 1024.6 1024.7 0.0
30/10:00pm 10.5 7.3 7.0 79 1.7 ESE 13 19 7 10 1024.8 1024.9 0.0
30/09:30pm 11.1 8.0 7.2 77 1.9 ESE 13 19 7 10 1024.8 1024.9 0.0
30/09:00pm 11.8 8.3 7.3 74 2.2 ESE 15 20 8 11 1024.7 1024.8 0.0
30/08:30pm 12.5 9.1 7.8 73 2.3 ESE 15 20 8 11 1024.5 1024.6 0.0
30/08:00pm 12.5 10.2 7.4 71 2.5 SSE 9 11 5 6 1024.0 1024.0 0.0
30/07:30pm 12.8 10.9 7.7 71 2.5 SSE 7 9 4 5 1023.8 1023.8 0.0
30/07:00pm 12.9 11.2 7.6 70 2.6 SSE 6 7 3 4 1023.5 1023.5 0.0
30/06:30pm 13.9 12.3 7.9 67 3.0 SSE 6 7 3 4 1023.4 1023.4 0.0
30/06:00pm 14.7 13.2 8.4 66 3.2 SSE 6 7 3 4 1023.4 1023.4 0.0
30/05:30pm 16.5 14.9 8.7 60 4.1 SSE 7 11 4 6 1023.3 1023.3 0.0
30/05:00pm 17.4 15.9 8.5 56 4.6 SE 6 11 3 6 1023.2 1023.2 0.0
30/04:30pm 17.8 17.3 7.8 52 5.2 CALM 0 0 0 0 1023.1 1023.1 0.0
30/04:00pm 17.6 16.3 7.6 52 5.1 ESE 4 9 2 5 1023.2 1023.2 0.0
30/03:30pm 17.8 16.3 8.6 55 4.8 NE 6 11 3 6 1023.1 1023.1 0.0
30/03:00pm 17.0 15.3 7.4 53 4.9 ENE 6 9 3 5 1023.1 1023.1 0.0
30/02:30pm 16.3 14.5 8.0 58 4.3 ESE 7 13 4 7 1023.2 1023.2 0.0
30/02:00pm 16.4 14.9 8.6 60 4.0 ESE 6 11 3 6 1023.4 1023.4 0.0
30/01:30pm 16.1 14.8 7.6 57 4.3 ESE 4 9 2 5 1023.5 1023.5 0.0
30/01:00pm 15.3 13.3 7.1 58 4.1 ESE 7 11 4 6 1023.8 1023.8 0.0
30/12:30pm 15.2 13.4 8.0 62 3.7 S 7 11 4 6 1024.1 1024.1 0.0
30/12:00pm 14.6 12.8 7.2 61 3.7 S 6 9 3 5 1024.2 1024.2 0.0
30/11:30am 14.4 12.2 7.7 64 3.4 E 9 17 5 9 1024.3 1024.3 0.0
30/11:00am 13.9 11.5 7.2 64 3.3 ESE 9 13 5 7 1024.4 1024.5 0.0
30/10:30am 13.3 10.6 7.5 68 2.9 SSE 11 17 6 9 1024.6 1024.7 0.0
30/10:00am 13.2 11.4 8.1 71 2.6 SSE 7 13 4 7 1024.6 1024.7 0.0
30/09:30am 12.9 10.7 8.0 72 2.5 SSE 9 13 5 7 1024.5 1024.6 0.0
30/09:00am 12.7 9.7 7.8 72 2.4 SSE 13 19 7 10 1024.3 1024.3 0.2
30/08:30am 12.3 9.4 8.0 75 2.1 S 13 20 7 11 1023.9 1023.9 0.2
30/08:00am 12.1 9.7 8.8 80 1.7 S 11 17 6 9 1023.7 1023.7 0.2
30/07:30am 11.4 9.9 9.0 85 1.2 S 7 11 4 6 1023.5 1023.5 0.2
30/07:00am 10.5 8.9 8.9 90 0.8 SSW 7 11 4 6 1023.2 1023.2 0.2
30/06:30am 10.2 8.7 8.6 90 0.8 SW 6 7 3 4 1023.0 1023.0 0.2
30/06:00am 10.1 8.6 8.5 90 0.8 WSW 6 7 3 4 1022.8 1022.8 0.2
30/05:30am 10.0 8.3 8.4 90 0.8 W 7 9 4 5 1022.6 1022.6 0.2
30/05:00am 9.9 8.4 8.3 90 0.8 W 6 7 3 4 1022.3 1022.3 0.2
30/04:30am 9.9 8.2 8.2 89 0.8 WNW 7 9 4 5 1021.8 1021.9 0.2
30/04:00am 10.1 8.4 8.2 88 0.9 W 7 11 4 6 1021.5 1021.5 0.2
30/03:30am 9.9 8.1 8.0 88 0.9 W 7 11 4 6 1021.2 1021.2 0.2
30/03:00am 10.0 8.3 8.3 89 0.8 W 7 13 4 7 1020.8 1020.8 0.2
30/02:30am 9.6 7.8 8.0 90 0.8 WNW 7 13 4 7 1020.7 1020.7 0.2
30/02:00am 8.2 5.7 6.5 89 0.8 W 9 11 5 6 1020.7 1020.7 0.2
30/01:30am 7.2 4.8 5.2 87 0.9 WNW 7 9 4 5 1020.6 1020.6 0.2
30/01:00am 7.5 5.2 5.5 87 0.9 W 7 7 4 4 1020.6 1020.6 0.2
30/12:30am 7.9 4.8 5.7 86 1.0 W 11 11 6 6 1020.4 1020.4 0.2
30/12:00am 8.4 5.8 5.9 84 1.2 W 9 11 5 6 1020.3 1020.3 0.2
 
Date/Time
WST
Temp
°C
App
Temp
°C
Dew
Point
Rel
Hum
%
Delta-T
°C
Wind Press
QNH
hPa
Press
MSL
hPa
Rain
since 9 am
mm
Dir
 
Spd
km/h
Gust
km/h
Spd
kts
Gust
kts
29/11:30pm 8.5 5.5 6.0 84 1.2 W 11 15 6 8 1020.3 1020.3 0.2
29/11:00pm 9.3 6.8 6.4 82 1.4 W 9 13 5 7 1020.4 1020.4 0.2
29/10:30pm 9.1 6.2 6.4 83 1.3 W 11 13 6 7 1020.6 1020.6 0.2
29/10:00pm 8.9 5.9 6.2 83 1.3 W 11 13 6 7 1020.7 1020.7 0.2
29/09:30pm 8.4 6.0 5.3 81 1.4 W 7 11 4 6 1020.4 1020.4 0.2
29/09:00pm 9.8 7.7 6.5 80 1.6 W 7 11 4 6 1020.2 1020.2 0.2
29/08:30pm 10.5 8.1 6.8 78 1.8 SW 9 13 5 7 1020.4 1020.4 0.2
29/08:00pm 11.3 9.5 7.2 76 2.0 WSW 6 9 3 5 1019.8 1019.8 0.2
29/07:30pm 12.1 9.5 7.6 74 2.2 WSW 11 17 6 9 1019.2 1019.2 0.2
29/07:00pm 13.2 10.6 7.6 69 2.8 WSW 11 15 6 8 1018.4 1018.4 0.2
29/06:30pm 14.6 10.8 7.6 63 3.5 WSW 17 24 9 13 1017.9 1017.9 0.2
29/06:00pm 15.4 13.0 8.6 64 3.5 WSW 11 19 6 10 1017.3 1017.3 0.2
29/05:30pm 16.9 13.2 8.1 56 4.5 W 17 24 9 13 1016.6 1016.6 0.2
29/05:00pm 17.9 13.4 8.5 54 4.9 W 22 32 12 17 1016.2 1016.1 0.2
29/04:30pm 18.6 14.1 8.6 52 5.3 W 22 32 12 17 1015.9 1015.8 0.2
29/04:00pm 18.9 14.0 8.3 50 5.6 W 24 32 13 17 1015.5 1015.5 0.2
29/03:30pm 19.4 14.3 9.3 52 5.4 W 26 37 14 20 1015.3 1015.3 0.2
29/03:00pm 19.3 14.8 8.6 50 5.7 WNW 22 33 12 18 1014.9 1014.9 0.2
29/02:30pm 18.0 12.8 8.8 55 4.8 W 26 37 14 20 1015.1 1015.1 0.2
29/02:00pm 18.6 14.0 8.3 51 5.4 W 22 32 12 17 1014.9 1014.9 0.2
29/01:30pm 18.6 13.7 8.6 52 5.3 W 24 41 13 22 1015.0 1015.0 0.2
29/01:00pm 19.3 14.0 8.3 49 5.8 WNW 26 37 14 20 1015.0 1015.0 0.2
29/12:30pm 18.3 13.7 9.6 57 4.7 WNW 24 33 13 18 1015.1 1015.1 0.2
29/12:00pm 17.6 13.6 10.5 63 3.9 W 22 33 12 18 1015.7 1015.6 0.2
29/11:30am 18.5 14.6 12.0 66 3.6 WNW 24 35 13 19 1015.9 1015.8 0.2
29/11:00am 16.7 13.0 10.3 66 3.4 W 20 33 11 18 1015.7 1015.6 0.2
29/10:30am 16.0 11.5 10.1 68 3.1 WNW 24 33 13 18 1015.8 1015.7 0.2
29/10:00am 15.3 11.6 10.1 71 2.8 WNW 20 30 11 16 1016.1 1016.0 0.2
29/09:30am 14.4 10.2 9.6 73 2.5 W 22 32 12 17 1016.0 1015.9 0.0
29/09:00am 13.8 9.3 10.2 79 1.9 W 24 33 13 18 1016.1 1016.0 1.8
29/08:30am 13.7 9.8 10.7 82 1.6 W 22 32 12 17 1015.7 1015.6 1.8
29/08:00am 13.0 8.9 10.2 83 1.5 W 22 32 12 17 1015.4 1015.4 1.8
29/07:30am 12.4 9.2 10.1 86 1.2 WNW 17 26 9 14 1015.1 1015.1 1.8
29/07:00am 11.8 9.7 9.9 88 1.0 WNW 11 19 6 10 1014.8 1014.8 1.8
29/06:30am 11.1 8.5 9.4 89 0.9 WNW 13 17 7 9 1014.7 1014.7 1.8
29/06:00am 10.6 8.2 8.7 88 1.0 WNW 11 17 6 9 1014.4 1014.4 1.8
29/05:30am 11.1 8.5 9.4 89 0.9 W 13 19 7 10 1014.3 1014.3 1.8
29/05:00am 11.3 8.8 9.6 89 0.9 W 13 20 7 11 1014.0 1014.0 1.8
29/04:30am 11.7 9.7 10.1 90 0.8 WNW 11 19 6 10 1013.8 1013.8 1.8
29/04:00am 11.7 9.7 10.1 90 0.8 WNW 11 17 6 9 1013.7 1013.6 1.8
29/03:30am 11.7 9.7 10.1 90 0.8 WNW 11 15 6 8 1013.7 1013.6 1.8
29/03:00am 11.8 10.2 10.2 90 0.8 W 9 20 5 11 1014.0 1014.0 1.8
29/02:30am 11.9 9.6 10.3 90 0.8 NW 13 17 7 9 1014.1 1014.1 0.6
29/02:00am 11.9 9.2 10.3 90 0.8 NW 15 24 8 13 1014.1 1014.1 0.4
29/01:30am 11.8 9.1 10.2 90 0.8 NW 15 22 8 12 1014.2 1014.2 0.4
29/01:00am 11.8 9.1 10.2 90 0.8 NW 15 22 8 12 1014.4 1014.4 0.4
29/12:30am 11.9 9.9 10.3 90 0.8 NW 11 20 6 11 1014.7 1014.7 0.4
29/12:00am 11.9 9.9 10.3 90 0.8 NNW 11 19 6 10 1014.6 1014.6 0.2
 
Date/Time
WST
Temp
°C
App
Temp
°C
Dew
Point
Rel
Hum
%
Delta-T
°C
Wind Press
QNH
hPa
Press
MSL
hPa
Rain
since 9 am
mm
Dir
 
Spd
km/h
Gust
km/h
Spd
kts
Gust
kts
28/11:30pm 11.9 9.9 10.1 89 0.9 NW 11 17 6 9 1014.8 1014.8 0.2
28/11:00pm 11.8 9.4 9.9 88 1.0 NW 13 19 7 10 1015.1 1015.1 0.0

Other Formats:

Comma delimited format used in spreadsheet applications
http://www.bom.gov.au/fwo/IDW60801/IDW60801.94641.axf

JavaScript Object Notation format (JSON) in row-major order
http://www.bom.gov.au/fwo/IDW60801/IDW60801.94641.json